Time;durP1;ratioP1;P1;durP2;ratioP2;P2;SDS_P1;SDS_P2;PMS_P1;PMS_P2;Temp;Humidity;BMP_temperature;BMP_pressure;BME280_temperature;BME280_humidity;BME280_pressure;Samples;Min_cycle;Max_cycle;Signal;HPM_P1;HPM_P2
2022/04/28 00:02:09;;;;;;;0.00;0.00;;;;;;;10.86;45.58;102540.16;7352769;19;20010;-64
2022/04/28 00:04:35;;;;;;;0.00;0.00;;;;;;;10.82;45.21;102543.59;7353460;19;20003;-63
2022/04/28 00:07:00;;;;;;;0.00;0.00;;;;;;;10.72;45.25;102530.47;7358120;19;20477;-63
2022/04/28 00:09:25;;;;;;;0.00;0.00;;;;;;;10.76;45.67;102546.19;7346715;19;20013;-64
2022/04/28 00:11:52;;;;;;;0.00;0.00;;;;;;;10.73;45.39;102547.91;7360414;19;20010;-63
2022/04/28 00:14:18;;;;;;;0.00;0.00;;;;;;;10.69;45.46;102541.78;7358029;19;20126;-63
2022/04/28 00:16:43;;;;;;;0.00;0.00;;;;;;;10.67;45.62;102542.63;7353501;19;19999;-62
2022/04/28 00:19:09;;;;;;;0.00;0.00;;;;;;;10.53;45.92;102522.50;7358513;19;20829;-63
2022/04/28 00:21:34;;;;;;;0.05;0.05;;;;;;;10.43;45.64;102515.47;7353369;19;20113;-63
2022/04/28 00:24:00;;;;;;;0.00;0.00;;;;;;;10.52;45.75;102536.44;7355508;19;20093;-63
2022/04/28 00:26:26;;;;;;;0.00;0.00;;;;;;;10.53;45.83;102535.56;7347365;19;20002;-62
2022/04/28 00:28:51;;;;;;;0.00;0.00;;;;;;;10.51;45.87;102544.28;7341784;19;20569;-63
2022/04/28 00:31:17;;;;;;;0.00;0.00;;;;;;;10.48;46.01;102547.72;7359927;19;20879;-63
2022/04/28 00:33:42;;;;;;;0.00;0.00;;;;;;;10.45;46.10;102547.72;7356358;19;20010;-63
2022/04/28 00:36:09;;;;;;;0.00;0.00;;;;;;;10.42;46.10;102542.47;7353733;19;20667;-63
2022/04/28 00:38:34;;;;;;;0.00;0.00;;;;;;;10.33;46.50;102532.81;7359135;19;20052;-63
2022/04/28 00:41:00;;;;;;;0.00;0.00;;;;;;;10.35;46.53;102541.56;7358396;19;20036;-63
2022/04/28 00:43:29;;;;;;;0.00;0.00;;;;;;;10.31;46.32;102538.91;7356590;19;20478;-63
2022/04/28 00:45:55;;;;;;;0.00;0.00;;;;;;;10.31;46.81;102544.13;7340141;19;20029;-63
2022/04/28 00:51:07;;;;;;;0.00;0.00;;;;;;;10.27;47.09;102544.97;7353455;19;20060;-63
2022/04/28 00:53:36;;;;;;;0.10;0.10;;;;;;;10.13;46.83;102522.19;7358231;19;20026;-62
2022/04/28 00:56:04;;;;;;;0.00;0.00;;;;;;;10.14;46.90;102531.78;7352571;19;20010;-63
2022/04/28 00:58:30;;;;;;;0.00;0.00;;;;;;;10.13;47.07;102527.41;7358340;19;20018;-63
2022/04/28 01:00:56;;;;;;;0.00;0.00;;;;;;;10.16;47.00;102542.22;7358987;19;20082;-63
2022/04/28 01:03:22;;;;;;;0.00;0.00;;;;;;;10.13;46.97;102537.84;7353579;19;20007;-63
2022/04/28 01:05:49;;;;;;;0.00;0.00;;;;;;;10.10;47.30;102534.34;7359715;19;20030;-61
2022/04/28 01:08:15;;;;;;;0.00;0.00;;;;;;;10.05;46.95;102530.81;7357581;19;20464;-63
2022/04/28 01:10:40;;;;;;;0.00;0.00;;;;;;;10.06;47.33;102548.22;7350907;19;20026;-62
2022/04/28 01:13:05;;;;;;;0.00;0.00;;;;;;;10.02;47.54;102544.72;7351053;19;20035;-63
2022/04/28 01:15:47;;;;;;;0.00;0.00;;;;;;;9.99;46.50;102544.69;7357143;19;20026;-62
2022/04/28 01:18:13;;;;;;;0.00;0.00;;;;;;;9.96;47.19;102543.78;7348192;19;20070;-62
2022/04/28 01:20:39;;;;;;;0.00;0.00;;;;;;;9.92;47.73;102545.47;7355227;19;20006;-63
2022/04/28 01:23:05;;;;;;;0.00;0.00;;;;;;;9.92;47.43;102550.69;7356507;19;20013;-63
2022/04/28 01:25:31;;;;;;;0.00;0.00;;;;;;;9.87;47.37;102553.25;7342412;19;20010;-63
2022/04/28 01:27:57;;;;;;;0.00;0.00;;;;;;;9.86;47.65;102566.31;7357741;19;20067;-62
2022/04/28 01:30:23;;;;;;;0.00;0.00;;;;;;;9.81;47.71;102553.22;7349764;19;20565;-61
2022/04/28 01:32:49;;;;;;;0.00;0.00;;;;;;;9.82;47.78;102564.50;7359095;19;20009;-63
2022/04/28 01:35:14;;;;;;;0.00;0.00;;;;;;;9.78;47.97;102562.72;7357408;19;20018;-63
2022/04/28 01:37:41;;;;;;;0.00;0.00;;;;;;;9.75;48.20;102558.38;7358855;19;20005;-63
2022/04/28 01:40:11;;;;;;;0.05;0.05;;;;;;;9.71;47.72;102560.94;7355162;19;20089;-63
2022/04/28 01:42:40;;;;;;;0.00;0.00;;;;;;;9.69;47.98;102557.44;7356056;19;20028;-61
2022/04/28 01:45:07;;;;;;;0.00;0.00;;;;;;;9.65;47.96;102560.88;7347185;19;20011;-63
2022/04/28 01:47:33;;;;;;;0.08;0.08;;;;;;;9.61;48.10;102560.81;7357516;19;20010;-63
2022/04/28 01:49:59;;;;;;;0.00;0.00;;;;;;;9.49;47.86;102545.06;7350068;19;20958;-62
2022/04/28 01:55:09;;;;;;;0.05;0.05;;;;;;;9.54;47.88;102563.34;7353051;19;20878;-63
2022/04/28 01:57:34;;;;;;;0.10;0.10;;;;;;;9.50;48.31;102558.97;7346909;19;20066;-64
2022/04/28 02:00:00;;;;;;;0.00;0.00;;;;;;;9.48;48.42;102566.78;7325519;19;20007;-62
2022/04/28 02:02:26;;;;;;;0.00;0.00;;;;;;;9.45;48.06;102564.13;7357335;19;20454;-63
2022/04/28 02:04:52;;;;;;;0.00;0.00;;;;;;;9.43;48.53;102559.72;7354280;19;20030;-59
2022/04/28 02:07:18;;;;;;;0.00;0.00;;;;;;;9.40;48.64;102559.72;7353547;19;20006;-63
2022/04/28 02:09:45;;;;;;;0.00;0.00;;;;;;;9.37;48.51;102557.94;7348267;19;20021;-61
2022/04/28 02:12:13;;;;;;;0.00;0.00;;;;;;;9.35;48.44;102557.03;7355662;19;20779;-63
2022/04/28 02:14:39;;;;;;;0.00;0.00;;;;;;;9.20;48.96;102533.41;7357015;19;20522;-63
2022/04/28 02:17:04;;;;;;;0.00;0.00;;;;;;;9.22;48.98;102542.09;7346661;19;20106;-63
2022/04/28 02:19:31;;;;;;;0.00;0.00;;;;;;;9.23;49.29;102547.34;7364016;19;20013;-63
2022/04/28 02:21:56;;;;;;;0.03;0.03;;;;;;;9.26;49.64;102555.19;7344667;19;20018;-63
2022/04/28 02:24:22;;;;;;;0.00;0.00;;;;;;;9.25;49.16;102556.06;7358212;19;20035;-63
2022/04/28 02:26:47;;;;;;;0.00;0.00;;;;;;;9.23;49.50;102557.78;7353708;19;20007;-63
2022/04/28 02:29:13;;;;;;;0.00;0.00;;;;;;;9.23;49.62;102551.69;7341592;19;20013;-63
2022/04/28 02:31:38;;;;;;;0.00;0.00;;;;;;;9.21;49.93;102553.38;7360015;19;20014;-63
2022/04/28 02:34:03;;;;;;;0.00;0.00;;;;;;;9.19;50.19;102553.38;7360568;19;20036;-62
2022/04/28 02:36:29;;;;;;;0.00;0.00;;;;;;;9.18;49.47;102554.25;7344741;19;20078;-62
2022/04/28 02:38:54;;;;;;;0.00;0.00;;;;;;;9.13;50.78;102549.81;7348714;19;20362;-63
2022/04/28 02:41:21;;;;;;;0.00;0.00;;;;;;;9.15;50.31;102553.31;7359587;19;20639;-63
2022/04/28 02:43:50;;;;;;;0.00;0.00;;;;;;;9.13;49.61;102558.53;7359937;19;20027;-62
2022/04/28 02:46:17;;;;;;;0.00;0.00;;;;;;;9.10;50.94;102556.72;7323427;19;20019;-62
2022/04/28 02:48:42;;;;;;;0.00;0.00;;;;;;;9.04;51.07;102555.78;7360586;19;20007;-63
2022/04/28 02:51:07;;;;;;;0.00;0.00;;;;;;;9.08;49.74;102568.88;7355985;19;20014;-63
2022/04/28 02:53:34;;;;;;;0.00;0.00;;;;;;;9.06;49.57;102559.28;7359199;19;20007;-63
2022/04/28 02:56:00;;;;;;;0.03;0.03;;;;;;;9.04;50.15;102561.88;7361093;19;20931;-62
2022/04/28 02:58:25;;;;;;;0.10;0.10;;;;;;;9.03;50.26;102560.13;7349356;19;20010;-63
2022/04/28 03:00:50;;;;;;;0.00;0.00;;;;;;;8.97;51.38;102549.63;7361602;19;20841;-62
2022/04/28 03:03:16;;;;;;;0.00;0.00;;;;;;;9.01;50.68;102561.81;7342500;19;20014;-63
2022/04/28 03:11:10;;;;;;;0.00;0.00;;;;;;;8.98;50.82;102561.78;7354953;19;20031;-62
2022/04/28 03:13:36;;;;;;;0.00;0.00;;;;;;;8.96;50.84;102555.66;7362239;19;20018;-63
2022/04/28 03:16:02;;;;;;;0.00;0.00;;;;;;;8.93;51.36;102557.38;7356146;19;20007;-63
2022/04/28 03:18:28;;;;;;;0.00;0.00;;;;;;;8.88;51.35;102546.88;7352159;19;20013;-63
2022/04/28 03:20:54;;;;;;;0.08;0.08;;;;;;;8.83;51.31;102545.94;7355121;19;20368;-62
2022/04/28 03:23:20;;;;;;;0.00;0.00;;;;;;;8.81;51.45;102538.09;7360951;19;20046;-62
2022/04/28 03:25:46;;;;;;;0.00;0.00;;;;;;;8.82;51.49;102552.03;7361045;19;20003;-62
2022/04/28 03:28:11;;;;;;;0.00;0.00;;;;;;;8.79;51.80;102544.16;7352231;19;20408;-62
2022/04/28 03:30:37;;;;;;;0.00;0.00;;;;;;;8.75;51.90;102539.75;7363094;19;20011;-63
2022/04/28 03:33:02;;;;;;;0.00;0.00;;;;;;;8.74;51.24;102540.59;7358339;19;21429;-63
2022/04/28 03:35:28;;;;;;;0.00;0.00;;;;;;;8.70;51.63;102542.28;7364929;19;20356;-63
2022/04/28 03:37:53;;;;;;;0.00;0.00;;;;;;;8.56;51.76;102518.63;7364396;19;20023;-62
2022/04/28 03:40:18;;;;;;;0.00;0.00;;;;;;;8.67;52.14;102544.84;7362647;19;20022;-63
2022/04/28 03:42:44;;;;;;;0.00;0.00;;;;;;;8.65;52.00;102540.47;7364732;19;20007;-63
2022/04/28 03:45:11;;;;;;;0.00;0.00;;;;;;;8.58;51.69;102526.47;7356603;19;20022;-62
2022/04/28 03:47:37;;;;;;;0.00;0.00;;;;;;;8.52;51.56;102523.81;7361605;19;20353;-61
2022/04/28 03:50:04;;;;;;;0.00;0.00;;;;;;;8.61;51.56;102536.06;7362525;19;20018;-63
2022/04/28 03:52:30;;;;;;;0.00;0.00;;;;;;;8.53;51.60;102530.75;7362237;19;21053;-62
2022/04/28 03:54:55;;;;;;;0.00;0.00;;;;;;;8.45;51.57;102522.81;7362856;19;20014;-63
2022/04/28 03:57:21;;;;;;;0.10;0.10;;;;;;;8.47;51.28;102541.94;7362353;19;20006;-62
2022/04/28 03:59:46;;;;;;;0.10;0.10;;;;;;;8.44;52.25;102530.59;7361160;19;20017;-63
2022/04/28 04:02:11;;;;;;;0.00;0.00;;;;;;;8.42;52.26;102537.53;7350666;19;20029;-63
2022/04/28 04:04:37;;;;;;;0.10;0.10;;;;;;;8.41;52.00;102534.03;7362956;19;20890;-62
2022/04/28 04:07:03;;;;;;;0.00;0.00;;;;;;;8.41;52.45;102531.41;7362741;19;20006;-63
2022/04/28 04:09:28;;;;;;;0.00;0.00;;;;;;;8.42;52.22;102533.19;7350283;19;20011;-63
2022/04/28 04:11:54;;;;;;;0.00;0.00;;;;;;;8.39;52.46;102522.72;7352362;19;20042;-61
2022/04/28 04:14:19;;;;;;;0.05;0.05;;;;;;;8.44;52.51;102531.47;7359599;19;20074;-63
2022/04/28 04:16:44;;;;;;;0.10;0.10;;;;;;;8.39;52.03;102516.63;7362504;19;20017;-63
2022/04/28 04:19:10;;;;;;;0.00;0.00;;;;;;;8.41;52.56;102515.78;7357616;19;20756;-63
2022/04/28 04:21:35;;;;;;;0.00;0.00;;;;;;;8.45;52.23;102521.94;7352215;19;20026;-63
2022/04/28 04:24:01;;;;;;;0.00;0.00;;;;;;;8.41;52.21;102515.78;7362459;19;20676;-63
2022/04/28 04:26:26;;;;;;;0.00;0.00;;;;;;;8.44;52.73;102515.84;7359876;19;20007;-62
2022/04/28 04:28:51;;;;;;;0.00;0.00;;;;;;;8.45;52.87;102521.94;7359603;19;20015;-62
2022/04/28 04:34:01;;;;;;;0.00;0.00;;;;;;;8.35;52.21;102496.59;7364114;19;20010;-62
2022/04/28 04:36:27;;;;;;;0.00;0.00;;;;;;;8.44;52.54;102515.84;7355828;19;20006;-63
2022/04/28 04:38:52;;;;;;;0.00;0.00;;;;;;;8.44;52.82;102515.84;7362457;19;20017;-64
2022/04/28 04:41:18;;;;;;;0.00;0.00;;;;;;;8.45;52.80;102514.13;7361258;19;20040;-62
2022/04/28 04:43:43;;;;;;;0.00;0.00;;;;;;;8.43;52.59;102511.50;7362144;19;20014;-62
2022/04/28 04:46:08;;;;;;;0.00;0.00;;;;;;;8.42;52.66;102503.69;7361374;19;20010;-64
2022/04/28 04:48:34;;;;;;;0.00;0.00;;;;;;;8.41;52.75;102505.38;7352955;19;20013;-62
2022/04/28 04:51:00;;;;;;;0.00;0.00;;;;;;;8.38;52.87;102504.47;7350999;19;20016;-63
2022/04/28 04:53:25;;;;;;;0.00;0.00;;;;;;;8.28;53.14;102482.59;7360031;19;20009;-63
2022/04/28 04:55:51;;;;;;;0.00;0.00;;;;;;;8.39;53.38;102501.88;7354545;19;20006;-62
2022/04/28 04:58:16;;;;;;;0.00;0.00;;;;;;;8.34;53.47;102498.31;7359178;19;20015;-63
2022/04/28 05:00:42;;;;;;;0.00;0.00;;;;;;;8.40;52.10;102511.44;7358258;19;20026;-62
2022/04/28 05:03:07;;;;;;;0.00;0.00;;;;;;;8.41;53.01;102509.72;7358259;19;20814;-63
2022/04/28 05:05:32;;;;;;;0.00;0.00;;;;;;;8.41;53.34;102509.72;7355472;19;20023;-63
2022/04/28 05:07:58;;;;;;;0.10;0.10;;;;;;;8.42;53.74;102506.28;7360955;19;20002;-63
2022/04/28 05:10:23;;;;;;;0.00;0.00;;;;;;;8.43;53.64;102514.13;7356224;19;20327;-62
2022/04/28 05:12:49;;;;;;;0.00;0.00;;;;;;;8.43;52.94;102516.72;7362273;19;20055;-63
2022/04/28 05:15:14;;;;;;;0.10;0.10;;;;;;;8.44;52.52;102520.19;7360494;19;20471;-62
2022/04/28 05:17:39;;;;;;;0.00;0.00;;;;;;;8.43;52.60;102524.53;7359649;19;20623;-63
2022/04/28 05:20:07;;;;;;;0.00;0.00;;;;;;;8.41;52.25;102531.41;7349929;19;20002;-63
2022/04/28 05:22:32;;;;;;;0.00;0.00;;;;;;;8.36;52.17;102532.16;7352977;19;20502;-63
2022/04/28 05:24:58;;;;;;;0.00;0.00;;;;;;;8.27;53.05;102533.78;7346844;19;20002;-62
2022/04/28 05:27:23;;;;;;;0.00;0.00;;;;;;;8.03;53.45;102512.56;7345171;19;20470;-63
2022/04/28 05:29:49;;;;;;;0.00;0.00;;;;;;;8.07;54.18;102533.47;7349064;19;20006;-63
2022/04/28 05:32:14;;;;;;;0.00;0.00;;;;;;;8.04;54.53;102541.19;7359581;19;20065;-62
2022/04/28 05:34:40;;;;;;;0.00;0.00;;;;;;;7.97;54.99;102534.16;7351328;19;20626;-63
2022/04/28 05:37:06;;;;;;;0.00;0.00;;;;;;;8.00;55.02;102549.78;7348444;19;20011;-63
2022/04/28 05:39:31;;;;;;;0.00;0.00;;;;;;;8.01;55.43;102541.16;7352718;19;20021;-63
2022/04/28 05:41:57;;;;;;;0.00;0.00;;;;;;;8.05;55.48;102552.47;7359285;19;20015;-63
2022/04/28 05:47:07;;;;;;;0.00;0.00;;;;;;;8.15;55.08;102556.13;7358704;19;20081;-63
2022/04/28 05:49:33;;;;;;;0.00;0.00;;;;;;;8.18;55.77;102548.38;7361706;19;20086;-62
2022/04/28 05:51:59;;;;;;;0.00;0.00;;;;;;;8.23;55.63;102552.81;7364668;19;20023;-63
2022/04/28 05:54:25;;;;;;;0.00;0.00;;;;;;;8.27;55.21;102553.75;7358513;19;20325;-63
2022/04/28 05:56:51;;;;;;;0.00;0.00;;;;;;;8.31;54.92;102558.13;7365891;19;20799;-63
2022/04/28 05:59:17;;;;;;;0.00;0.00;;;;;;;8.25;54.90;102539.81;7365385;19;20047;-62
2022/04/28 06:01:42;;;;;;;0.00;0.00;;;;;;;8.36;55.31;102559.09;7364304;19;20101;-63
2022/04/28 06:04:08;;;;;;;0.00;0.00;;;;;;;8.38;54.90;102567.84;7364295;19;20031;-61
2022/04/28 06:06:34;;;;;;;0.00;0.00;;;;;;;8.31;55.64;102555.50;7362484;19;20046;-63
2022/04/28 06:08:59;;;;;;;0.00;0.00;;;;;;;8.40;55.69;102565.25;7356137;19;20734;-63
2022/04/28 06:11:25;;;;;;;0.00;0.00;;;;;;;8.47;55.82;102573.19;7352503;19;20010;-63
2022/04/28 06:13:50;;;;;;;0.10;0.10;;;;;;;8.51;55.76;102574.97;7361963;19;20011;-61
2022/04/28 06:16:16;;;;;;;0.00;0.00;;;;;;;8.45;55.76;102564.47;7363730;19;20427;-63
2022/04/28 06:18:41;;;;;;;0.00;0.00;;;;;;;8.60;55.96;102583.78;7355306;19;20011;-63
2022/04/28 06:21:07;;;;;;;0.00;0.00;;;;;;;8.57;55.86;102577.69;7361407;19;20803;-63
2022/04/28 06:23:32;;;;;;;0.00;0.00;;;;;;;8.60;56.01;102573.38;7365117;19;20006;-63
2022/04/28 06:25:57;;;;;;;0.00;0.00;;;;;;;8.74;56.03;102592.69;7363507;19;20002;-63
2022/04/28 06:28:23;;;;;;;0.00;0.00;;;;;;;8.78;55.63;102594.50;7361524;19;20006;-63
2022/04/28 06:30:48;;;;;;;0.00;0.00;;;;;;;8.82;55.82;102585.88;7357720;19;20677;-64
2022/04/28 06:33:14;;;;;;;0.00;0.00;;;;;;;8.87;56.03;102597.25;7363590;19;20014;-62
2022/04/28 06:35:39;;;;;;;0.00;0.00;;;;;;;8.92;55.62;102590.38;7359248;19;20038;-63
2022/04/28 06:38:05;;;;;;;0.00;0.00;;;;;;;8.94;55.97;102596.47;7363714;19;20015;-63
2022/04/28 06:40:31;;;;;;;0.00;0.00;;;;;;;9.01;56.13;102593.09;7356946;19;20029;-62
2022/04/28 06:42:56;;;;;;;0.00;0.00;;;;;;;8.96;56.30;102580.84;7360660;19;20006;-62
2022/04/28 06:45:23;;;;;;;0.00;0.00;;;;;;;9.10;55.25;102595.81;7350172;19;20713;-63
2022/04/28 06:47:48;;;;;;;0.00;0.00;;;;;;;9.03;55.31;102586.19;7359355;19;20023;-63
2022/04/28 06:50:14;;;;;;;0.08;0.08;;;;;;;9.20;55.78;102604.66;7358305;19;20839;-63
2022/04/28 06:52:39;;;;;;;0.00;0.00;;;;;;;9.24;55.85;102608.19;7356990;19;20023;-63
2022/04/28 06:55:07;;;;;;;0.00;0.00;;;;;;;9.28;56.17;102605.63;7358863;19;20011;-63
2022/04/28 06:57:32;;;;;;;0.00;0.00;;;;;;;9.24;56.08;102605.56;7361529;19;20845;-62
2022/04/28 06:59:58;;;;;;;0.00;0.00;;;;;;;9.36;54.80;102616.16;7353630;19;20008;-62
2022/04/28 07:02:24;;;;;;;0.00;0.00;;;;;;;9.44;54.92;102618.88;7360862;19;20013;-62
2022/04/28 07:04:51;;;;;;;0.00;0.00;;;;;;;9.49;55.09;102618.06;7358006;19;20017;-63
2022/04/28 07:07:16;;;;;;;0.00;0.00;;;;;;;9.46;55.43;102599.75;7359858;19;20081;-64
2022/04/28 07:09:41;;;;;;;0.00;0.00;;;;;;;9.61;55.35;102623.44;7359919;19;20010;-63
2022/04/28 07:12:07;;;;;;;0.00;0.00;;;;;;;9.73;54.40;102627.03;7356712;19;20013;-62
2022/04/28 07:14:33;;;;;;;0.10;0.10;;;;;;;9.80;54.94;102631.47;7353857;19;20477;-63
2022/04/28 07:16:59;;;;;;;0.00;0.00;;;;;;;9.89;54.84;102639.41;7360801;19;20041;-63
2022/04/28 07:19:24;;;;;;;0.00;0.00;;;;;;;9.86;54.46;102623.72;7355928;19;20753;-62
2022/04/28 07:21:49;;;;;;;0.00;0.00;;;;;;;10.05;54.49;102645.69;7361294;19;20006;-62
2022/04/28 07:24:15;;;;;;;0.00;0.00;;;;;;;10.12;54.64;102640.53;7351253;19;20007;-63
2022/04/28 07:26:40;;;;;;;0.00;0.00;;;;;;;10.20;54.71;102640.59;7361411;19;20036;-63
2022/04/28 07:29:06;;;;;;;0.00;0.00;;;;;;;10.20;54.98;102624.06;7356912;19;20634;-62
2022/04/28 07:31:32;;;;;;;0.00;0.00;;;;;;;10.34;55.12;102636.44;7362506;19;20808;-63
2022/04/28 07:33:58;;;;;;;0.10;0.10;;;;;;;10.37;55.19;102622.50;7354840;19;20002;-63
2022/04/28 07:36:23;;;;;;;0.00;0.00;;;;;;;10.53;54.28;102639.19;7360006;19;20002;-62
2022/04/28 07:38:49;;;;;;;0.08;0.08;;;;;;;10.63;54.99;102654.94;7361766;19;20111;-63
2022/04/28 07:41:14;;;;;;;0.00;0.00;;;;;;;10.64;54.93;102633.22;7359586;19;20429;-63
2022/04/28 07:43:40;;;;;;;0.00;0.00;;;;;;;10.82;54.60;102649.88;7361171;19;20009;-62
2022/04/28 07:46:06;;;;;;;0.08;0.08;;;;;;;10.87;54.99;102640.34;7361084;19;20476;-63
2022/04/28 07:48:31;;;;;;;0.08;0.08;;;;;;;11.01;54.34;102657.00;7352716;19;20011;-62
2022/04/28 07:50:57;;;;;;;0.00;0.00;;;;;;;11.10;54.67;102654.44;7350951;19;20006;-63
2022/04/28 07:53:22;;;;;;;0.00;0.00;;;;;;;11.23;55.19;102657.13;7358050;19;20002;-63
2022/04/28 07:56:10;;;;;;;0.00;0.00;;;;;;;11.34;55.06;102658.06;7361911;19;20010;-63
2022/04/28 07:58:33;;;;;;;0.00;0.00;;;;;;;11.46;54.36;102662.50;7356187;19;20561;-63
2022/04/28 08:00:59;;;;;;;0.00;0.00;;;;;;;11.57;54.53;102661.69;7358992;19;20013;-63
2022/04/28 08:03:25;;;;;;;0.00;0.00;;;;;;;11.67;55.24;102666.09;7344404;19;20003;-63
2022/04/28 08:05:51;;;;;;;0.00;0.00;;;;;;;11.80;54.79;102668.72;7362722;19;21064;-62
2022/04/28 08:08:17;;;;;;;0.00;0.00;;;;;;;11.90;55.24;102667.94;7359575;19;20001;-64
2022/04/28 08:10:42;;;;;;;0.00;0.00;;;;;;;12.00;55.20;102674.94;7350088;19;20015;-63
2022/04/28 08:13:07;;;;;;;0.00;0.00;;;;;;;12.10;55.33;102681.94;7352256;19;20663;-62
2022/04/28 08:15:33;;;;;;;0.00;0.00;;;;;;;12.22;55.12;102686.38;7357449;19;20096;-63
2022/04/28 08:17:59;;;;;;;0.05;0.05;;;;;;;12.32;54.72;102679.41;7348447;19;20028;-63
2022/04/28 08:20:24;;;;;;;0.00;0.00;;;;;;;12.40;54.62;102675.03;7357564;19;20018;-63
2022/04/28 08:22:50;;;;;;;0.00;0.00;;;;;;;12.49;54.99;102677.66;7357785;19;20011;-61
2022/04/28 08:25:15;;;;;;;0.00;0.00;;;;;;;12.57;55.02;102686.44;7351097;19;20006;-63
2022/04/28 08:27:41;;;;;;;0.10;0.10;;;;;;;12.63;55.21;102681.19;7359233;19;20013;-64
2022/04/28 08:30:07;;;;;;;0.00;0.00;;;;;;;12.70;55.18;102680.28;7355902;19;20007;-63
2022/04/28 08:32:33;;;;;;;0.03;0.03;;;;;;;12.79;55.07;102679.44;7341531;19;21156;-63
2022/04/28 08:34:59;;;;;;;0.00;0.00;;;;;;;12.86;55.45;102677.66;7357876;19;20050;-63
2022/04/28 08:37:24;;;;;;;0.00;0.00;;;;;;;12.91;55.06;102686.41;7359143;19;20014;-63
2022/04/28 08:39:50;;;;;;;0.00;0.00;;;;;;;12.95;55.59;102677.66;7358717;19;20003;-63
2022/04/28 08:42:18;;;;;;;0.00;0.00;;;;;;;12.99;55.28;102668.94;7355912;19;20002;-62
2022/04/28 08:44:44;;;;;;;0.00;0.00;;;;;;;13.08;55.63;102676.78;7352920;19;20738;-62
2022/04/28 08:47:10;;;;;;;0.00;0.00;;;;;;;13.15;55.56;102682.91;7361469;19;20760;-63
2022/04/28 08:49:36;;;;;;;0.00;0.00;;;;;;;13.20;55.09;102679.38;7359583;19;20031;-63
2022/04/28 08:52:02;;;;;;;0.00;0.00;;;;;;;13.29;55.50;102678.53;7359496;19;20702;-63
2022/04/28 08:54:30;;;;;;;0.00;0.00;;;;;;;13.38;55.04;102672.38;7353852;19;20090;-63
2022/04/28 08:56:56;;;;;;;0.00;0.00;;;;;;;13.49;54.95;102670.59;7360641;19;20687;-63
2022/04/28 08:59:23;;;;;;;0.00;0.00;;;;;;;13.58;54.80;102681.03;7361862;19;20035;-63
2022/04/28 09:01:50;;;;;;;0.00;0.00;;;;;;;13.57;54.43;102655.69;7361633;19;20335;-63
2022/04/28 09:04:17;;;;;;;0.00;0.00;;;;;;;13.80;54.72;102675.75;7360087;19;20010;-64
2022/04/28 09:06:43;;;;;;;0.00;0.00;;;;;;;13.86;54.51;102673.06;7360976;19;20036;-61
2022/04/28 09:09:10;;;;;;;0.00;0.00;;;;;;;13.99;53.91;102678.28;7362288;19;20081;-63
2022/04/28 09:11:37;;;;;;;0.00;0.00;;;;;;;14.06;53.58;102681.72;7356340;19;20023;-63
2022/04/28 09:14:11;;;;;;;0.00;0.00;;;;;;;14.16;53.19;102691.28;7358887;19;20019;-63
2022/04/28 09:16:42;;;;;;;0.00;0.00;;;;;;;14.24;53.05;102689.50;7348240;19;20006;-63
2022/04/28 09:19:28;;;;;;;0.00;0.00;;;;;;;14.20;52.78;102684.28;7355557;19;20031;-63
2022/04/28 09:22:00;;;;;;;0.00;0.00;;;;;;;14.36;51.80;102687.69;7359765;19;20543;-63
2022/04/28 09:24:27;;;;;;;0.00;0.00;;;;;;;14.37;52.41;102679.78;7355591;19;20105;-63
2022/04/28 09:26:54;;;;;;;0.00;0.00;;;;;;;14.41;52.96;102691.16;7356400;19;20019;-62
2022/04/28 09:29:20;;;;;;;0.00;0.00;;;;;;;14.43;52.66;102684.13;7356920;19;20079;-63
2022/04/28 09:31:48;;;;;;;0.00;0.00;;;;;;;14.47;52.61;102686.75;7355713;19;20025;-63
2022/04/28 09:34:15;;;;;;;0.10;0.10;;;;;;;14.43;52.64;102673.59;7350503;19;22215;-63
2022/04/28 09:36:42;;;;;;;0.00;0.00;;;;;;;14.62;52.56;102691.03;7360127;19;20006;-63
2022/04/28 09:39:11;;;;;;;0.00;0.00;;;;;;;14.59;52.13;102670.00;7359529;19;20849;-63
2022/04/28 09:44:22;;;;;;;0.00;0.00;;;;;;;14.89;52.05;102686.41;7355587;19;20022;-63
2022/04/28 09:46:49;;;;;;;0.00;0.00;;;;;;;14.94;51.30;102687.25;7358156;19;20081;-64
2022/04/28 09:49:17;;;;;;;0.00;0.00;;;;;;;14.95;51.13;102683.72;7358901;19;20018;-63
2022/04/28 09:51:43;;;;;;;0.10;0.10;;;;;;;15.05;50.53;102690.63;7360437;19;20356;-62
2022/04/28 09:54:11;;;;;;;0.05;0.05;;;;;;;15.00;50.59;102674.03;7360235;19;20006;-64
2022/04/28 09:56:37;;;;;;;;;;;;;;;15.16;49.63;102693.19;7360553;19;20514;-63
2022/04/28 09:59:05;;;;;;;0.00;0.00;;;;;;;15.09;50.45;102688.84;7362674;19;20402;-64
2022/04/28 10:01:31;;;;;;;;;;;;;;;15.15;49.28;102692.28;7346077;19;20027;-63
2022/04/28 10:03:57;;;;;;;0.00;0.00;;;;;;;14.97;50.10;102674.94;7357339;19;19922;-63
2022/04/28 10:06:25;;;;;;;0.00;0.00;;;;;;;15.08;50.65;102695.88;7358540;19;20013;-63
2022/04/28 10:08:52;;;;;;;0.10;0.10;;;;;;;15.07;50.75;102696.78;7359110;19;20009;-63
2022/04/28 10:11:22;;;;;;;0.00;0.00;;;;;;;15.13;50.60;102686.19;7359085;19;20698;-63
2022/04/28 10:13:49;;;;;;;0.00;0.00;;;;;;;15.16;50.28;102688.81;7358580;19;20425;-64
2022/04/28 10:16:17;;;;;;;0.00;0.00;;;;;;;15.23;50.31;102695.72;7357950;19;20515;-63
2022/04/28 10:19:10;;;;;;;0.10;0.10;;;;;;;15.34;49.42;102694.75;7349385;19;20876;-64
2022/04/28 10:21:50;;;;;;;0.10;0.10;;;;;;;15.34;49.07;102697.38;7248020;19;2004364;-61
2022/04/28 10:33:10;;;;;;;0.00;0.00;;;;;;;15.43;48.90;102710.44;7252960;19;2004548;-63
2022/04/28 10:35:37;;;;;;;0.08;0.08;;;;;;;15.42;48.68;102706.06;7250598;19;2004447;-63
2022/04/28 10:38:31;;;;;;;0.08;0.08;;;;;;;15.49;48.76;102702.47;7358189;19;20011;-63
2022/04/28 10:41:03;;;;;;;0.00;0.00;;;;;;;15.51;48.91;102695.41;7265426;19;2004357;-63
2022/04/28 10:43:38;;;;;;;0.00;0.00;;;;;;;15.53;48.67;102699.78;7360756;19;20815;-63
2022/04/28 10:46:04;;;;;;;0.00;0.00;;;;;;;15.53;48.39;102699.78;7347948;19;20007;-63
2022/04/28 10:48:35;;;;;;;0.00;0.00;;;;;;;15.61;48.45;102696.19;7352070;19;20443;-64
2022/04/28 10:51:10;;;;;;;0.00;0.00;;;;;;;15.65;48.91;102696.16;7367082;19;20002;-63
2022/04/28 10:53:36;;;;;;;0.00;0.00;;;;;;;15.67;47.92;102694.41;7363701;19;20023;-63
2022/04/28 10:56:12;;;;;;;0.00;0.00;;;;;;;15.77;48.09;102688.13;7359019;19;20006;-63
2022/04/28 10:58:38;;;;;;;0.00;0.00;;;;;;;15.76;47.93;102691.66;7365721;19;20007;-63
2022/04/28 11:01:04;;;;;;;0.00;0.00;;;;;;;15.80;47.54;102698.63;7353456;19;20062;-63
2022/04/28 11:03:52;;;;;;;0.00;0.00;;;;;;;15.86;47.87;102696.78;7365924;19;20007;-64
2022/04/28 11:06:28;;;;;;;0.00;0.00;;;;;;;15.84;47.33;102694.19;7355000;19;20467;-64
2022/04/28 11:08:55;;;;;;;0.10;0.10;;;;;;;15.81;47.26;102700.38;7361774;19;20023;-60
2022/04/28 11:11:21;;;;;;;0.00;0.00;;;;;;;15.82;47.69;102696.84;7360517;19;20027;-63
2022/04/28 11:13:58;;;;;;;0.08;0.08;;;;;;;15.88;47.22;102705.56;7366699;19;20090;-63
2022/04/28 11:16:26;;;;;;;0.00;0.00;;;;;;;15.83;47.42;102701.22;7352220;19;20379;-64
2022/04/28 11:18:53;;;;;;;0.08;0.08;;;;;;;15.70;47.13;102681.19;7364292;19;20007;-63
2022/04/28 11:21:19;;;;;;;0.10;0.10;;;;;;;15.82;46.89;102707.38;7364590;19;20010;-64
2022/04/28 11:23:47;;;;;;;0.00;0.00;;;;;;;15.85;46.80;102711.72;7361302;19;20029;-62
2022/04/28 11:26:13;;;;;;;0.00;0.00;;;;;;;15.85;46.51;102708.22;7363163;19;20094;-62
2022/04/28 11:28:40;;;;;;;0.10;0.10;;;;;;;15.85;46.70;102710.88;7358214;19;20019;-62
2022/04/28 11:31:18;;;;;;;0.10;0.10;;;;;;;15.89;46.11;102702.03;7363439;19;20002;-63
2022/04/28 11:33:45;;;;;;;;;;;;;;;15.92;46.29;102702.88;7359590;19;20014;-64
2022/04/28 11:36:20;;;;;;;0.00;0.00;;;;;;;15.79;46.45;102691.59;7362968;19;19931;-64
2022/04/28 11:38:54;;;;;;;0.00;0.00;;;;;;;15.83;46.58;102698.59;7362375;19;20474;-62
2022/04/28 11:41:40;;;;;;;0.00;0.00;;;;;;;15.85;46.73;102706.47;7364883;19;19998;-64
2022/04/28 11:44:11;;;;;;;0.05;0.05;;;;;;;15.86;46.59;102704.69;7363697;19;20014;-63
2022/04/28 11:46:49;;;;;;;0.00;0.00;;;;;;;15.93;46.75;102709.00;7349220;19;20019;-63
2022/04/28 11:49:17;;;;;;;0.00;0.00;;;;;;;15.99;46.59;102711.56;7361841;19;20020;-63
2022/04/28 11:51:42;;;;;;;0.00;0.00;;;;;;;16.10;46.18;102717.56;7359543;19;20623;-63
2022/04/28 11:54:26;;;;;;;0.10;0.10;;;;;;;16.24;46.16;102699.78;7355894;19;20017;-64
2022/04/28 11:57:06;;;;;;;0.10;0.10;;;;;;;16.32;45.57;102699.66;7361567;19;20808;-63